sensor_id;sensor_type;location;lat;lon;timestamp;pressure;altitude;pressure_sealevel;temperature;humidity
68525;BME280;55524;51.380;13.372;2022-09-03T00:01:47;100800.47;;;13.13;69.67
68525;BME280;55524;51.380;13.372;2022-09-03T00:04:26;100802.19;;;13.14;69.99
68525;BME280;55524;51.380;13.372;2022-09-03T00:07:07;100796.09;;;13.12;69.89
68525;BME280;55524;51.380;13.372;2022-09-03T00:09:47;100788.25;;;13.09;69.57
68525;BME280;55524;51.380;13.372;2022-09-03T00:12:18;100789.31;;;13.05;70.12
68525;BME280;55524;51.380;13.372;2022-09-03T00:17:20;100784.94;;;13.04;70.66
68525;BME280;55524;51.380;13.372;2022-09-03T00:20:00;100781.53;;;13.00;70.46
68525;BME280;55524;51.380;13.372;2022-09-03T00:22:56;100781.13;;;12.89;70.95
68525;BME280;55524;51.380;13.372;2022-09-03T00:25:24;100786.38;;;12.91;71.49
68525;BME280;55524;51.380;13.372;2022-09-03T00:30:19;100778.00;;;12.79;71.07
68525;BME280;55524;51.380;13.372;2022-09-03T00:35:24;100780.91;;;12.73;72.13
68525;BME280;55524;51.380;13.372;2022-09-03T00:37:52;100780.28;;;12.67;72.73
68525;BME280;55524;51.380;13.372;2022-09-03T00:46:22;100772.16;;;12.49;72.86
68525;BME280;55524;51.380;13.372;2022-09-03T01:00:06;100765.56;;;12.14;74.39
68525;BME280;55524;51.380;13.372;2022-09-03T01:23:05;100777.00;;;11.93;76.99
68525;BME280;55524;51.380;13.372;2022-09-03T01:33:49;100778.84;;;11.66;78.69
68525;BME280;55524;51.380;13.372;2022-09-03T01:39:10;100778.72;;;11.45;78.48
68525;BME280;55524;51.380;13.372;2022-09-03T01:47:35;100794.84;;;11.38;80.21
68525;BME280;55524;51.380;13.372;2022-09-03T02:01:42;100787.78;;;11.13;82.46
68525;BME280;55524;51.380;13.372;2022-09-03T02:04:22;100797.78;;;11.03;82.39
68525;BME280;55524;51.380;13.372;2022-09-03T02:06:51;100800.66;;;10.97;83.37
68525;BME280;55524;51.380;13.372;2022-09-03T02:09:19;100786.69;;;10.92;83.02
68525;BME280;55524;51.380;13.372;2022-09-03T02:11:58;100771.97;;;10.85;82.97
68525;BME280;55524;51.380;13.372;2022-09-03T02:14:40;100777.44;;;10.79;84.32
68525;BME280;55524;51.380;13.372;2022-09-03T02:17:10;100774.69;;;10.82;83.85
68525;BME280;55524;51.380;13.372;2022-09-03T02:19:38;100770.59;;;10.73;84.38
68525;BME280;55524;51.380;13.372;2022-09-03T02:22:12;100783.22;;;10.64;84.34
68525;BME280;55524;51.380;13.372;2022-09-03T02:27:28;100781.84;;;10.52;85.75
68525;BME280;55524;51.380;13.372;2022-09-03T02:29:58;100786.16;;;10.54;85.27
68525;BME280;55524;51.380;13.372;2022-09-03T02:32:26;100774.75;;;10.52;85.10
68525;BME280;55524;51.380;13.372;2022-09-03T02:34:54;100777.41;;;10.52;85.75
68525;BME280;55524;51.380;13.372;2022-09-03T02:37:21;100781.97;;;10.47;88.05
68525;BME280;55524;51.380;13.372;2022-09-03T02:42:25;100770.72;;;10.42;88.18
68525;BME280;55524;51.380;13.372;2022-09-03T02:45:18;100783.09;;;10.40;89.83
68525;BME280;55524;51.380;13.372;2022-09-03T02:48:05;100770.88;;;10.36;87.26
68525;BME280;55524;51.380;13.372;2022-09-03T02:50:38;100773.44;;;10.39;86.10
68525;BME280;55524;51.380;13.372;2022-09-03T02:53:08;100770.72;;;10.41;86.58
68525;BME280;55524;51.380;13.372;2022-09-03T02:58:47;100782.28;;;10.38;89.49
68525;BME280;55524;51.380;13.372;2022-09-03T03:01:20;100786.81;;;10.33;90.46
68525;BME280;55524;51.380;13.372;2022-09-03T03:04:08;100786.09;;;10.28;88.58
68525;BME280;55524;51.380;13.372;2022-09-03T03:06:56;100784.94;;;10.38;86.58
68525;BME280;55524;51.380;13.372;2022-09-03T03:09:23;100786.66;;;10.39;87.88
68525;BME280;55524;51.380;13.372;2022-09-03T03:12:13;100784.16;;;10.34;89.05
68525;BME280;55524;51.380;13.372;2022-09-03T03:17:47;100778.81;;;10.36;89.62
68525;BME280;55524;51.380;13.372;2022-09-03T03:28:35;100775.31;;;10.36;89.11
68525;BME280;55524;51.380;13.372;2022-09-03T03:31:35;100768.09;;;10.41;88.80
68525;BME280;55524;51.380;13.372;2022-09-03T03:34:05;100777.63;;;10.46;88.88
68525;BME280;55524;51.380;13.372;2022-09-03T03:36:42;100776.63;;;10.49;89.87
68525;BME280;55524;51.380;13.372;2022-09-03T03:39:10;100772.13;;;10.52;90.86
68525;BME280;55524;51.380;13.372;2022-09-03T03:41:40;100772.91;;;10.56;89.38
68525;BME280;55524;51.380;13.372;2022-09-03T03:44:10;100771.94;;;10.58;89.10
68525;BME280;55524;51.380;13.372;2022-09-03T03:46:40;100772.75;;;10.61;88.00
68525;BME280;55524;51.380;13.372;2022-09-03T03:49:08;100779.81;;;10.60;88.11
68525;BME280;55524;51.380;13.372;2022-09-03T03:51:37;100774.59;;;10.58;88.98
68525;BME280;55524;51.380;13.372;2022-09-03T03:54:11;100772.81;;;10.59;88.70
68525;BME280;55524;51.380;13.372;2022-09-03T04:02:24;100777.16;;;10.60;88.37
68525;BME280;55524;51.380;13.372;2022-09-03T04:04:51;100779.00;;;10.58;88.41
68525;BME280;55524;51.380;13.372;2022-09-03T04:08:04;100776.41;;;10.56;88.20
68525;BME280;55524;51.380;13.372;2022-09-03T04:13:47;100775.69;;;10.51;88.80
68525;BME280;55524;51.380;13.372;2022-09-03T04:16:31;100773.34;;;10.42;88.95
68525;BME280;55524;51.380;13.372;2022-09-03T04:22:07;100761.22;;;10.35;89.29
68525;BME280;55524;51.380;13.372;2022-09-03T05:09:37;100788.75;;;10.28;90.76
68525;BME280;55524;51.380;13.372;2022-09-03T05:12:04;100787.66;;;10.35;90.84
68525;BME280;55524;51.380;13.372;2022-09-03T05:14:46;100785.97;;;10.32;91.49
68525;BME280;55524;51.380;13.372;2022-09-03T05:17:13;100791.94;;;10.39;91.10
68525;BME280;55524;51.380;13.372;2022-09-03T05:20:04;100781.22;;;10.44;90.14
68525;BME280;55524;51.380;13.372;2022-09-03T05:25:24;100791.47;;;10.53;90.75
68525;BME280;55524;51.380;13.372;2022-09-03T05:27:52;100783.47;;;10.56;90.78
68525;BME280;55524;51.380;13.372;2022-09-03T05:30:20;100784.28;;;10.58;91.35
68525;BME280;55524;51.380;13.372;2022-09-03T05:33:34;100780.50;;;10.67;91.04
68525;BME280;55524;51.380;13.372;2022-09-03T05:38:37;100780.84;;;10.82;89.69
68525;BME280;55524;51.380;13.372;2022-09-03T05:44:39;100786.75;;;10.91;89.73
68525;BME280;55524;51.380;13.372;2022-09-03T05:47:12;100790.00;;;10.99;89.83
68525;BME280;55524;51.380;13.372;2022-09-03T05:50:01;100787.91;;;11.08;88.99
68525;BME280;55524;51.380;13.372;2022-09-03T05:52:28;100791.31;;;11.12;88.81
68525;BME280;55524;51.380;13.372;2022-09-03T05:54:59;100794.63;;;11.19;88.54
68525;BME280;55524;51.380;13.372;2022-09-03T05:57:32;100792.63;;;11.25;87.76
68525;BME280;55524;51.380;13.372;2022-09-03T06:00:01;100792.41;;;11.31;87.54
68525;BME280;55524;51.380;13.372;2022-09-03T06:02:28;100790.50;;;11.37;86.95
68525;BME280;55524;51.380;13.372;2022-09-03T06:04:56;100792.88;;;11.44;86.65
68525;BME280;55524;51.380;13.372;2022-09-03T06:07:24;100789.91;;;11.52;86.60
68525;BME280;55524;51.380;13.372;2022-09-03T06:09:52;100788.16;;;11.52;86.68
68525;BME280;55524;51.380;13.372;2022-09-03T06:12:19;100786.91;;;11.63;85.94
68525;BME280;55524;51.380;13.372;2022-09-03T06:14:47;100785.47;;;11.77;85.00
68525;BME280;55524;51.380;13.372;2022-09-03T06:20:28;100793.09;;;11.87;84.60
68525;BME280;55524;51.380;13.372;2022-09-03T06:22:55;100798.50;;;11.84;84.76
68525;BME280;55524;51.380;13.372;2022-09-03T06:25:42;100795.88;;;11.84;83.58
68525;BME280;55524;51.380;13.372;2022-09-03T06:28:09;100794.03;;;11.86;84.58
68525;BME280;55524;51.380;13.372;2022-09-03T06:30:40;100793.75;;;11.93;84.53
68525;BME280;55524;51.380;13.372;2022-09-03T06:33:09;100799.56;;;12.03;85.28
68525;BME280;55524;51.380;13.372;2022-09-03T06:35:37;100790.41;;;12.12;82.38
68525;BME280;55524;51.380;13.372;2022-09-03T06:38:04;100803.97;;;12.26;82.91
68525;BME280;55524;51.380;13.372;2022-09-03T06:40:31;100795.50;;;12.40;81.76
68525;BME280;55524;51.380;13.372;2022-09-03T06:48:17;100791.63;;;12.92;79.09
68525;BME280;55524;51.380;13.372;2022-09-03T06:50:51;100784.63;;;13.12;78.82
68525;BME280;55524;51.380;13.372;2022-09-03T06:53:26;100790.16;;;13.27;77.69
68525;BME280;55524;51.380;13.372;2022-09-03T06:56:03;100777.66;;;13.50;76.24
68525;BME280;55524;51.380;13.372;2022-09-03T06:58:32;100779.59;;;13.67;75.51
68525;BME280;55524;51.380;13.372;2022-09-03T07:01:02;100789.59;;;13.81;77.29
68525;BME280;55524;51.380;13.372;2022-09-03T07:03:29;100767.28;;;14.03;74.83
68525;BME280;55524;51.380;13.372;2022-09-03T07:06:02;100752.06;;;14.26;72.84
68525;BME280;55524;51.380;13.372;2022-09-03T07:08:31;100754.41;;;14.51;72.79
68525;BME280;55524;51.380;13.372;2022-09-03T07:11:03;100747.09;;;14.37;71.39
68525;BME280;55524;51.380;13.372;2022-09-03T07:13:38;100762.75;;;14.80;72.72
68525;BME280;55524;51.380;13.372;2022-09-03T07:16:13;100729.28;;;15.10;69.03
68525;BME280;55524;51.380;13.372;2022-09-03T07:18:47;100713.66;;;15.20;67.20
68525;BME280;55524;51.380;13.372;2022-09-03T07:21:35;100712.97;;;15.67;65.96
68525;BME280;55524;51.380;13.372;2022-09-03T07:24:03;100697.13;;;15.81;64.87
68525;BME280;55524;51.380;13.372;2022-09-03T07:26:32;100691.63;;;16.32;64.07
68525;BME280;55524;51.380;13.372;2022-09-03T07:28:59;100685.59;;;16.74;62.79
68525;BME280;55524;51.380;13.372;2022-09-03T07:31:31;100687.34;;;17.19;62.96
68525;BME280;55524;51.380;13.372;2022-09-03T07:34:03;100663.97;;;17.66;60.07
68525;BME280;55524;51.380;13.372;2022-09-03T07:36:45;100640.75;;;17.81;57.69
68525;BME280;55524;51.380;13.372;2022-09-03T07:39:13;100630.13;;;17.93;56.96
68525;BME280;55524;51.380;13.372;2022-09-03T07:41:44;100658.41;;;17.12;58.16
68525;BME280;55524;51.380;13.372;2022-09-03T07:44:31;100636.72;;;17.88;55.97
68525;BME280;55524;51.380;13.372;2022-09-03T07:47:03;100646.31;;;17.63;56.69
68525;BME280;55524;51.380;13.372;2022-09-03T07:49:31;100634.75;;;18.18;56.21
68525;BME280;55524;51.380;13.372;2022-09-03T07:51:58;100649.63;;;17.67;56.95
68525;BME280;55524;51.380;13.372;2022-09-03T07:54:24;100627.06;;;18.27;55.72
68525;BME280;55524;51.380;13.372;2022-09-03T07:56:53;100629.34;;;18.06;55.99
68525;BME280;55524;51.380;13.372;2022-09-03T07:59:19;100630.66;;;17.86;55.30
68525;BME280;55524;51.380;13.372;2022-09-03T08:01:51;100644.09;;;17.70;56.14
68525;BME280;55524;51.380;13.372;2022-09-03T08:04:17;100630.25;;;18.59;54.57
68525;BME280;55524;51.380;13.372;2022-09-03T08:06:44;100617.59;;;18.21;54.13
68525;BME280;55524;51.380;13.372;2022-09-03T08:09:12;100622.63;;;18.53;53.59
68525;BME280;55524;51.380;13.372;2022-09-03T08:11:51;100641.69;;;17.94;55.31
68525;BME280;55524;51.380;13.372;2022-09-03T08:14:17;100636.31;;;18.48;54.46
68525;BME280;55524;51.380;13.372;2022-09-03T08:16:45;100624.53;;;18.78;53.49
68525;BME280;55524;51.380;13.372;2022-09-03T08:19:16;100621.88;;;19.29;52.98
68525;BME280;55524;51.380;13.372;2022-09-03T08:21:43;100595.63;;;19.58;50.75
68525;BME280;55524;51.380;13.372;2022-09-03T08:24:11;100595.50;;;19.85;50.30
68525;BME280;55524;51.380;13.372;2022-09-03T08:26:39;100580.31;;;19.97;50.03
68525;BME280;55524;51.380;13.372;2022-09-03T08:29:09;100574.66;;;20.12;49.19
68525;BME280;55524;51.380;13.372;2022-09-03T08:31:36;100579.75;;;20.63;48.62
68525;BME280;55524;51.380;13.372;2022-09-03T08:34:28;100549.13;;;20.88;46.55
68525;BME280;55524;51.380;13.372;2022-09-03T08:36:55;100569.22;;;20.60;47.82
68525;BME280;55524;51.380;13.372;2022-09-03T08:39:22;100558.03;;;21.00;46.55
68525;BME280;55524;51.380;13.372;2022-09-03T08:44:48;100543.88;;;21.09;45.51
68525;BME280;55524;51.380;13.372;2022-09-03T08:47:23;100541.19;;;21.09;45.87
68525;BME280;55524;51.380;13.372;2022-09-03T08:50:25;100543.19;;;20.50;45.96
68525;BME280;55524;51.380;13.372;2022-09-03T08:55:28;100511.00;;;21.51;42.92
68525;BME280;55524;51.380;13.372;2022-09-03T08:58:16;100522.00;;;20.69;43.78
68525;BME280;55524;51.380;13.372;2022-09-03T09:16:57;100503.03;;;21.81;42.95
68525;BME280;55524;51.380;13.372;2022-09-03T09:19:57;100484.78;;;21.96;41.30
68525;BME280;55524;51.380;13.372;2022-09-03T09:22:33;100480.59;;;22.24;40.87
68525;BME280;55524;51.380;13.372;2022-09-03T09:25:06;100476.09;;;22.46;41.13
68525;BME280;55524;51.380;13.372;2022-09-03T09:27:34;100473.47;;;22.34;40.15
68525;BME280;55524;51.380;13.372;2022-09-03T09:30:04;100475.91;;;22.38;40.06
68525;BME280;55524;51.380;13.372;2022-09-03T09:32:31;100477.53;;;22.50;40.78
68525;BME280;55524;51.380;13.372;2022-09-03T09:34:59;100473.03;;;22.60;39.86
68525;BME280;55524;51.380;13.372;2022-09-03T09:37:26;100472.31;;;22.89;39.92
68525;BME280;55524;51.380;13.372;2022-09-03T09:39:56;100462.00;;;22.63;39.94
68525;BME280;55524;51.380;13.372;2022-09-03T09:42:24;100469.47;;;22.59;40.16
68525;BME280;55524;51.380;13.372;2022-09-03T09:44:51;100460.38;;;22.81;39.55
68525;BME280;55524;51.380;13.372;2022-09-03T09:47:30;100452.56;;;22.78;39.17
68525;BME280;55524;51.380;13.372;2022-09-03T09:50:01;100462.34;;;22.79;40.47
68525;BME280;55524;51.380;13.372;2022-09-03T09:52:29;100460.50;;;22.28;40.56
68525;BME280;55524;51.380;13.372;2022-09-03T09:55:15;100455.41;;;22.87;40.43
68525;BME280;55524;51.380;13.372;2022-09-03T09:57:44;100434.28;;;22.82;39.07
68525;BME280;55524;51.380;13.372;2022-09-03T10:00:14;100439.06;;;22.78;39.07
68525;BME280;55524;51.380;13.372;2022-09-03T10:02:48;100432.47;;;22.31;38.83
68525;BME280;55524;51.380;13.372;2022-09-03T10:05:35;100440.50;;;23.13;39.07
68525;BME280;55524;51.380;13.372;2022-09-03T10:08:15;100437.13;;;23.60;39.13
68525;BME280;55524;51.380;13.372;2022-09-03T10:10:46;100421.50;;;22.84;37.99
68525;BME280;55524;51.380;13.372;2022-09-03T10:19:14;100409.78;;;23.74;36.70
68525;BME280;55524;51.380;13.372;2022-09-03T10:26:42;100405.91;;;23.47;37.12
68525;BME280;55524;51.380;13.372;2022-09-03T10:29:21;100414.84;;;23.58;37.67
68525;BME280;55524;51.380;13.372;2022-09-03T10:45:38;100388.88;;;24.80;36.11
68525;BME280;55524;51.380;13.372;2022-09-03T10:48:13;100384.41;;;24.23;35.71
68525;BME280;55524;51.380;13.372;2022-09-03T10:53:36;100382.72;;;24.03;36.31
68525;BME280;55524;51.380;13.372;2022-09-03T10:56:14;100379.19;;;23.35;36.81
68525;BME280;55524;51.380;13.372;2022-09-03T11:07:07;100378.47;;;23.91;36.12
68525;BME280;55524;51.380;13.372;2022-09-03T11:09:40;100378.34;;;23.44;36.64
68525;BME280;55524;51.380;13.372;2022-09-03T11:12:10;100362.56;;;24.35;35.19
68525;BME280;55524;51.380;13.372;2022-09-03T11:14:58;100358.13;;;24.53;34.43
68525;BME280;55524;51.380;13.372;2022-09-03T11:17:36;100349.19;;;24.52;34.40
68525;BME280;55524;51.380;13.372;2022-09-03T11:20:20;100352.75;;;24.98;34.02
68525;BME280;55524;51.380;13.372;2022-09-03T11:22:54;100360.72;;;22.61;36.18
68525;BME280;55524;51.380;13.372;2022-09-03T11:25:34;100381.06;;;23.24;36.73
68525;BME280;55524;51.380;13.372;2022-09-03T11:33:59;100380.94;;;24.41;37.31
68525;BME280;55524;51.380;13.372;2022-09-03T11:36:39;100377.06;;;23.09;36.69
68525;BME280;55524;51.380;13.372;2022-09-03T11:39:33;100381.06;;;22.13;38.86
68525;BME280;55524;51.380;13.372;2022-09-03T11:42:03;100381.91;;;22.75;38.04
68525;BME280;55524;51.380;13.372;2022-09-03T11:44:39;100377.84;;;22.50;39.04
68525;BME280;55524;51.380;13.372;2022-09-03T11:49:52;100390.41;;;23.40;37.39
68525;BME280;55524;51.380;13.372;2022-09-03T11:52:30;100372.81;;;23.74;36.57
68525;BME280;55524;51.380;13.372;2022-09-03T11:54:58;100376.41;;;24.22;37.38
68525;BME280;55524;51.380;13.372;2022-09-03T11:59:53;100375.22;;;23.19;37.49
68525;BME280;55524;51.380;13.372;2022-09-03T12:02:27;100384.84;;;23.02;38.02
68525;BME280;55524;51.380;13.372;2022-09-03T12:08:01;100361.16;;;23.84;36.48
68525;BME280;55524;51.380;13.372;2022-09-03T12:18:33;100340.66;;;24.38;35.17
68525;BME280;55524;51.380;13.372;2022-09-03T12:21:04;100346.28;;;24.64;36.54
68525;BME280;55524;51.380;13.372;2022-09-03T12:23:41;100334.38;;;24.10;35.43
68525;BME280;55524;51.380;13.372;2022-09-03T12:26:11;100341.06;;;24.80;35.15
68525;BME280;55524;51.380;13.372;2022-09-03T12:28:42;100338.25;;;25.17;35.55
68525;BME280;55524;51.380;13.372;2022-09-03T12:31:17;100339.56;;;23.93;36.01
68525;BME280;55524;51.380;13.372;2022-09-03T12:36:20;100334.78;;;25.25;35.96
68525;BME280;55524;51.380;13.372;2022-09-03T12:38:47;100322.66;;;25.73;34.05
68525;BME280;55524;51.380;13.372;2022-09-03T12:41:27;100316.63;;;26.05;33.18
68525;BME280;55524;51.380;13.372;2022-09-03T12:46:30;100308.66;;;26.30;32.08
68525;BME280;55524;51.380;13.372;2022-09-03T12:49:00;100304.59;;;25.56;32.93
68525;BME280;55524;51.380;13.372;2022-09-03T12:51:50;100290.78;;;25.85;32.67
68525;BME280;55524;51.380;13.372;2022-09-03T12:54:19;100302.69;;;25.48;33.17
68525;BME280;55524;51.380;13.372;2022-09-03T12:56:55;100300.59;;;25.06;34.12
68525;BME280;55524;51.380;13.372;2022-09-03T12:59:22;100294.03;;;25.88;33.51
68525;BME280;55524;51.380;13.372;2022-09-03T13:01:57;100292.44;;;24.52;34.34
68525;BME280;55524;51.380;13.372;2022-09-03T13:04:31;100288.38;;;25.38;33.36
68525;BME280;55524;51.380;13.372;2022-09-03T13:07:14;100292.56;;;25.14;35.18
68525;BME280;55524;51.380;13.372;2022-09-03T13:09:46;100299.28;;;24.37;34.97
68525;BME280;55524;51.380;13.372;2022-09-03T13:12:29;100311.09;;;24.46;36.39
68525;BME280;55524;51.380;13.372;2022-09-03T13:14:56;100300.44;;;24.90;34.91
68525;BME280;55524;51.380;13.372;2022-09-03T13:20:49;100288.13;;;25.23;33.76
68525;BME280;55524;51.380;13.372;2022-09-03T13:23:11;100286.38;;;25.04;33.94
68525;BME280;55524;51.380;13.372;2022-09-03T13:25:52;100292.53;;;24.78;34.47
68525;BME280;55524;51.380;13.372;2022-09-03T13:34:02;100298.00;;;24.69;37.06
68525;BME280;55524;51.380;13.372;2022-09-03T13:36:45;100294.03;;;25.44;35.55
68525;BME280;55524;51.380;13.372;2022-09-03T13:48:14;100300.34;;;23.89;36.33
68525;BME280;55524;51.380;13.372;2022-09-03T13:51:03;100285.47;;;24.50;35.56
68525;BME280;55524;51.380;13.372;2022-09-03T13:59:52;100265.16;;;25.27;34.47
68525;BME280;55524;51.380;13.372;2022-09-03T14:02:45;100257.81;;;25.89;33.89
68525;BME280;55524;51.380;13.372;2022-09-03T14:08:03;100263.03;;;25.65;34.12
68525;BME280;55524;51.380;13.372;2022-09-03T14:14:18;100274.06;;;24.74;35.79
68525;BME280;55524;51.380;13.372;2022-09-03T14:17:01;100270.31;;;25.20;35.57
68525;BME280;55524;51.380;13.372;2022-09-03T14:22:22;100262.00;;;25.84;34.55
68525;BME280;55524;51.380;13.372;2022-09-03T14:25:03;100263.03;;;25.39;34.88
68525;BME280;55524;51.380;13.372;2022-09-03T14:27:34;100274.78;;;24.94;35.54
68525;BME280;55524;51.380;13.372;2022-09-03T14:32:29;100258.53;;;25.47;35.98
68525;BME280;55524;51.380;13.372;2022-09-03T14:35:21;100259.25;;;24.78;35.61
68525;BME280;55524;51.380;13.372;2022-09-03T14:40:59;100270.72;;;24.35;37.34
68525;BME280;55524;51.380;13.372;2022-09-03T14:54:57;100272.94;;;25.74;35.16
68525;BME280;55524;51.380;13.372;2022-09-03T14:57:47;100272.22;;;25.46;35.57
68525;BME280;55524;51.380;13.372;2022-09-03T15:00:21;100269.53;;;25.72;35.01
68525;BME280;55524;51.380;13.372;2022-09-03T15:11:25;100273.59;;;24.33;36.07
68525;BME280;55524;51.380;13.372;2022-09-03T15:30:11;100274.91;;;24.74;35.98
68525;BME280;55524;51.380;13.372;2022-09-03T15:32:45;100282.84;;;23.93;37.65
68525;BME280;55524;51.380;13.372;2022-09-03T15:39:15;100299.44;;;23.98;38.60
68525;BME280;55524;51.380;13.372;2022-09-03T15:44:10;100290.44;;;24.17;38.23
68525;BME280;55524;51.380;13.372;2022-09-03T15:54:57;100304.00;;;24.08;39.74
68525;BME280;55524;51.380;13.372;2022-09-03T15:57:49;100290.72;;;23.58;40.29
68525;BME280;55524;51.380;13.372;2022-09-03T16:00:20;100312.31;;;23.58;40.18
68525;BME280;55524;51.380;13.372;2022-09-03T16:03:08;100314.56;;;23.62;40.37
68525;BME280;55524;51.380;13.372;2022-09-03T16:06:15;100319.84;;;23.54;40.59
68525;BME280;55524;51.380;13.372;2022-09-03T16:08:58;100335.09;;;22.76;41.96
68525;BME280;55524;51.380;13.372;2022-09-03T16:11:36;100339.22;;;22.70;42.46
68525;BME280;55524;51.380;13.372;2022-09-03T16:14:37;100337.72;;;22.47;43.25
68525;BME280;55524;51.380;13.372;2022-09-03T16:17:21;100348.91;;;22.42;44.49
68525;BME280;55524;51.380;13.372;2022-09-03T16:22:46;100357.03;;;22.21;44.32
68525;BME280;55524;51.380;13.372;2022-09-03T16:25:21;100363.84;;;22.25;44.89
68525;BME280;55524;51.380;13.372;2022-09-03T16:28:08;100355.31;;;22.20;44.23
68525;BME280;55524;51.380;13.372;2022-09-03T16:30:47;100353.16;;;22.14;43.92
68525;BME280;55524;51.380;13.372;2022-09-03T16:33:30;100350.56;;;22.13;43.83
68525;BME280;55524;51.380;13.372;2022-09-03T16:36:43;100355.72;;;22.16;44.06
68525;BME280;55524;51.380;13.372;2022-09-03T16:42:58;100358.25;;;22.17;44.51
68525;BME280;55524;51.380;13.372;2022-09-03T16:48:37;100362.09;;;22.45;44.92
68525;BME280;55524;51.380;13.372;2022-09-03T17:00:16;100380.34;;;21.37;46.25
68525;BME280;55524;51.380;13.372;2022-09-03T17:02:56;100385.72;;;21.37;46.69
68525;BME280;55524;51.380;13.372;2022-09-03T17:22:34;100391.97;;;20.83;48.08
68525;BME280;55524;51.380;13.372;2022-09-03T17:25:19;100403.56;;;20.72;48.42
68525;BME280;55524;51.380;13.372;2022-09-03T17:28:23;100406.38;;;20.59;48.90
68525;BME280;55524;51.380;13.372;2022-09-03T17:30:58;100409.31;;;20.56;49.62
68525;BME280;55524;51.380;13.372;2022-09-03T17:33:53;100410.34;;;20.43;49.37
68525;BME280;55524;51.380;13.372;2022-09-03T17:36:23;100413.41;;;20.38;49.72
68525;BME280;55524;51.380;13.372;2022-09-03T17:47:40;100426.69;;;20.17;50.69
68525;BME280;55524;51.380;13.372;2022-09-03T17:50:17;100427.28;;;20.09;50.87
68525;BME280;55524;51.380;13.372;2022-09-03T17:55:56;100454.31;;;19.95;52.05
68525;BME280;55524;51.380;13.372;2022-09-03T18:01:18;100464.63;;;19.77;51.85
68525;BME280;55524;51.380;13.372;2022-09-03T18:06:33;100479.81;;;19.65;52.73
68525;BME280;55524;51.380;13.372;2022-09-03T18:14:34;100484.22;;;19.54;52.89
68525;BME280;55524;51.380;13.372;2022-09-03T18:19:51;100493.59;;;19.48;53.09
68525;BME280;55524;51.380;13.372;2022-09-03T18:26:01;100496.06;;;19.38;53.53
68525;BME280;55524;51.380;13.372;2022-09-03T18:29:14;100503.59;;;19.33;53.66
68525;BME280;55524;51.380;13.372;2022-09-03T18:31:59;100515.94;;;19.23;54.11
68525;BME280;55524;51.380;13.372;2022-09-03T18:34:46;100517.13;;;19.19;54.17
68525;BME280;55524;51.380;13.372;2022-09-03T18:37:31;100519.94;;;19.17;54.37
68525;BME280;55524;51.380;13.372;2022-09-03T18:40:26;100527.34;;;19.14;54.61
68525;BME280;55524;51.380;13.372;2022-09-03T18:43:15;100533.13;;;19.08;54.72
68525;BME280;55524;51.380;13.372;2022-09-03T18:49:43;100545.56;;;18.83;55.71
68525;BME280;55524;51.380;13.372;2022-09-03T18:53:03;100541.31;;;18.81;55.74
68525;BME280;55524;51.380;13.372;2022-09-03T19:02:02;100555.38;;;18.44;57.60
68525;BME280;55524;51.380;13.372;2022-09-03T19:13:36;100563.97;;;18.10;58.73
68525;BME280;55524;51.380;13.372;2022-09-03T19:16:57;100557.63;;;17.98;58.85
68525;BME280;55524;51.380;13.372;2022-09-03T19:22:40;100568.84;;;17.90;58.85
68525;BME280;55524;51.380;13.372;2022-09-03T19:25:28;100567.31;;;17.86;58.98
68525;BME280;55524;51.380;13.372;2022-09-03T19:28:25;100577.06;;;17.87;58.87
68525;BME280;55524;51.380;13.372;2022-09-03T19:44:16;100583.78;;;17.66;59.75
68525;BME280;55524;51.380;13.372;2022-09-03T19:47:03;100578.25;;;17.55;60.18
68525;BME280;55524;51.380;13.372;2022-09-03T19:52:58;100580.94;;;17.55;59.94
68525;BME280;55524;51.380;13.372;2022-09-03T19:55:57;100587.31;;;17.52;60.17
68525;BME280;55524;51.380;13.372;2022-09-03T19:58:59;100596.31;;;17.51;60.60
68525;BME280;55524;51.380;13.372;2022-09-03T20:01:46;100599.53;;;17.56;59.85
68525;BME280;55524;51.380;13.372;2022-09-03T20:04:50;100600.78;;;17.51;60.49
68525;BME280;55524;51.380;13.372;2022-09-03T20:07:38;100598.19;;;17.49;60.26
68525;BME280;55524;51.380;13.372;2022-09-03T20:10:24;100608.34;;;17.44;61.20
68525;BME280;55524;51.380;13.372;2022-09-03T20:13:14;100611.59;;;17.35;61.38
68525;BME280;55524;51.380;13.372;2022-09-03T20:15:57;100617.97;;;17.32;61.55
68525;BME280;55524;51.380;13.372;2022-09-03T20:21:23;100629.44;;;17.20;61.95
68525;BME280;55524;51.380;13.372;2022-09-03T20:27:12;100627.81;;;17.03;62.05
68525;BME280;55524;51.380;13.372;2022-09-03T20:29:55;100636.09;;;16.99;62.54
68525;BME280;55524;51.380;13.372;2022-09-03T20:36:20;100640.38;;;16.87;63.09
68525;BME280;55524;51.380;13.372;2022-09-03T20:52:10;100663.13;;;16.78;64.50
68525;BME280;55524;51.380;13.372;2022-09-03T21:00:20;100654.19;;;16.79;63.93
68525;BME280;55524;51.380;13.372;2022-09-03T21:08:47;100652.44;;;16.78;64.10
68525;BME280;55524;51.380;13.372;2022-09-03T21:25:38;100655.81;;;16.66;64.91
68525;BME280;55524;51.380;13.372;2022-09-03T21:30:56;100659.03;;;16.57;65.54
68525;BME280;55524;51.380;13.372;2022-09-03T21:33:28;100660.84;;;16.56;65.76
68525;BME280;55524;51.380;13.372;2022-09-03T21:36:10;100661.00;;;16.53;66.12
68525;BME280;55524;51.380;13.372;2022-09-03T21:38:39;100669.03;;;16.53;66.30
68525;BME280;55524;51.380;13.372;2022-09-03T21:41:17;100665.09;;;16.44;66.91
68525;BME280;55524;51.380;13.372;2022-09-03T21:44:08;100670.69;;;16.40;66.67